sensor_id;sensor_type;location;lat;lon;timestamp;P1;durP1;ratioP1;P2;durP2;ratioP2
12476;SDS011;6303;51.504;6.300;2022-09-09T00:00:36;1.67;;;0.85;;
12476;SDS011;6303;51.504;6.300;2022-09-09T00:03:07;1.17;;;0.88;;
12476;SDS011;6303;51.504;6.300;2022-09-09T00:05:42;0.82;;;0.82;;
12476;SDS011;6303;51.504;6.300;2022-09-09T00:08:18;0.80;;;0.80;;
12476;SDS011;6303;51.504;6.300;2022-09-09T00:10:48;0.93;;;0.90;;
12476;SDS011;6303;51.504;6.300;2022-09-09T00:13:22;1.23;;;0.77;;
12476;SDS011;6303;51.504;6.300;2022-09-09T00:15:55;2.05;;;0.95;;
12476;SDS011;6303;51.504;6.300;2022-09-09T00:18:27;1.75;;;0.70;;
12476;SDS011;6303;51.504;6.300;2022-09-09T00:21:01;0.80;;;0.80;;
12476;SDS011;6303;51.504;6.300;2022-09-09T00:23:34;1.40;;;0.90;;
12476;SDS011;6303;51.504;6.300;2022-09-09T00:26:05;0.95;;;0.95;;
12476;SDS011;6303;51.504;6.300;2022-09-09T00:28:39;2.42;;;0.70;;
12476;SDS011;6303;51.504;6.300;2022-09-09T00:31:12;1.05;;;0.70;;
12476;SDS011;6303;51.504;6.300;2022-09-09T00:33:43;0.77;;;0.77;;
12476;SDS011;6303;51.504;6.300;2022-09-09T00:36:12;1.45;;;0.80;;
12476;SDS011;6303;51.504;6.300;2022-09-09T00:38:44;0.80;;;0.70;;
12476;SDS011;6303;51.504;6.300;2022-09-09T00:41:17;0.70;;;0.70;;
12476;SDS011;6303;51.504;6.300;2022-09-09T00:43:52;1.70;;;1.00;;
12476;SDS011;6303;51.504;6.300;2022-09-09T00:46:36;1.55;;;0.77;;
12476;SDS011;6303;51.504;6.300;2022-09-09T00:49:20;0.77;;;0.77;;
12476;SDS011;6303;51.504;6.300;2022-09-09T00:51:59;1.33;;;0.85;;
12476;SDS011;6303;51.504;6.300;2022-09-09T00:54:43;1.25;;;1.00;;
12476;SDS011;6303;51.504;6.300;2022-09-09T00:57:23;1.33;;;0.95;;
12476;SDS011;6303;51.504;6.300;2022-09-09T00:59:58;1.23;;;0.80;;
12476;SDS011;6303;51.504;6.300;2022-09-09T01:02:44;1.02;;;0.60;;
12476;SDS011;6303;51.504;6.300;2022-09-09T01:05:30;3.42;;;1.00;;
12476;SDS011;6303;51.504;6.300;2022-09-09T01:08:12;0.90;;;0.80;;
12476;SDS011;6303;51.504;6.300;2022-09-09T01:10:51;0.82;;;0.80;;
12476;SDS011;6303;51.504;6.300;2022-09-09T01:13:28;1.33;;;1.05;;
12476;SDS011;6303;51.504;6.300;2022-09-09T01:16:00;2.05;;;1.02;;
12476;SDS011;6303;51.504;6.300;2022-09-09T01:18:32;1.65;;;0.90;;
12476;SDS011;6303;51.504;6.300;2022-09-09T01:21:04;1.08;;;1.00;;
12476;SDS011;6303;51.504;6.300;2022-09-09T01:26:54;1.27;;;0.90;;
12476;SDS011;6303;51.504;6.300;2022-09-09T01:29:25;2.00;;;0.90;;
12476;SDS011;6303;51.504;6.300;2022-09-09T01:31:54;1.38;;;1.25;;
12476;SDS011;6303;51.504;6.300;2022-09-09T01:34:23;1.85;;;1.13;;
12476;SDS011;6303;51.504;6.300;2022-09-09T01:36:53;2.25;;;1.27;;
12476;SDS011;6303;51.504;6.300;2022-09-09T01:39:25;1.10;;;1.00;;
12476;SDS011;6303;51.504;6.300;2022-09-09T01:42:01;3.80;;;1.38;;
12476;SDS011;6303;51.504;6.300;2022-09-09T01:44:30;1.77;;;1.23;;
12476;SDS011;6303;51.504;6.300;2022-09-09T01:46:59;1.98;;;1.20;;
12476;SDS011;6303;51.504;6.300;2022-09-09T01:49:27;3.45;;;1.70;;
12476;SDS011;6303;51.504;6.300;2022-09-09T01:51:55;2.13;;;1.15;;
12476;SDS011;6303;51.504;6.300;2022-09-09T01:54:29;1.58;;;1.20;;
12476;SDS011;6303;51.504;6.300;2022-09-09T01:57:06;1.20;;;1.10;;
12476;SDS011;6303;51.504;6.300;2022-09-09T01:59:48;1.52;;;1.02;;
12476;SDS011;6303;51.504;6.300;2022-09-09T02:02:24;2.47;;;1.35;;
12476;SDS011;6303;51.504;6.300;2022-09-09T02:05:09;2.40;;;1.20;;
12476;SDS011;6303;51.504;6.300;2022-09-09T02:07:46;1.67;;;1.20;;
12476;SDS011;6303;51.504;6.300;2022-09-09T02:10:27;1.95;;;1.38;;
12476;SDS011;6303;51.504;6.300;2022-09-09T02:13:13;2.15;;;0.93;;
12476;SDS011;6303;51.504;6.300;2022-09-09T02:15:42;1.75;;;1.25;;
12476;SDS011;6303;51.504;6.300;2022-09-09T02:18:14;1.10;;;1.02;;
12476;SDS011;6303;51.504;6.300;2022-09-09T02:20:45;0.95;;;0.90;;
12476;SDS011;6303;51.504;6.300;2022-09-09T02:23:14;2.53;;;1.00;;
12476;SDS011;6303;51.504;6.300;2022-09-09T02:25:45;2.05;;;1.10;;
12476;SDS011;6303;51.504;6.300;2022-09-09T02:28:20;1.48;;;1.00;;
12476;SDS011;6303;51.504;6.300;2022-09-09T02:30:51;2.90;;;1.38;;
12476;SDS011;6303;51.504;6.300;2022-09-09T02:33:25;2.08;;;1.23;;
12476;SDS011;6303;51.504;6.300;2022-09-09T02:35:54;1.63;;;1.20;;
12476;SDS011;6303;51.504;6.300;2022-09-09T02:38:28;2.45;;;1.10;;
12476;SDS011;6303;51.504;6.300;2022-09-09T02:41:07;2.55;;;1.40;;
12476;SDS011;6303;51.504;6.300;2022-09-09T02:43:36;3.67;;;1.30;;
12476;SDS011;6303;51.504;6.300;2022-09-09T02:46:08;2.20;;;1.10;;
12476;SDS011;6303;51.504;6.300;2022-09-09T02:48:51;1.98;;;1.17;;
12476;SDS011;6303;51.504;6.300;2022-09-09T02:51:31;4.55;;;1.20;;
12476;SDS011;6303;51.504;6.300;2022-09-09T02:54:10;2.58;;;1.35;;
12476;SDS011;6303;51.504;6.300;2022-09-09T02:56:46;2.28;;;1.17;;
12476;SDS011;6303;51.504;6.300;2022-09-09T02:59:24;3.20;;;1.45;;
12476;SDS011;6303;51.504;6.300;2022-09-09T03:01:52;1.88;;;1.10;;
12476;SDS011;6303;51.504;6.300;2022-09-09T03:04:21;2.35;;;1.50;;
12476;SDS011;6303;51.504;6.300;2022-09-09T03:06:50;2.30;;;1.33;;
12476;SDS011;6303;51.504;6.300;2022-09-09T03:09:19;2.15;;;1.40;;
12476;SDS011;6303;51.504;6.300;2022-09-09T03:11:48;3.00;;;1.30;;
12476;SDS011;6303;51.504;6.300;2022-09-09T03:14:16;1.48;;;1.30;;
12476;SDS011;6303;51.504;6.300;2022-09-09T03:16:48;4.60;;;1.60;;
12476;SDS011;6303;51.504;6.300;2022-09-09T03:19:15;1.83;;;1.40;;
12476;SDS011;6303;51.504;6.300;2022-09-09T03:21:43;4.20;;;1.75;;
12476;SDS011;6303;51.504;6.300;2022-09-09T03:24:11;4.10;;;1.65;;
12476;SDS011;6303;51.504;6.300;2022-09-09T03:26:38;3.80;;;1.60;;
12476;SDS011;6303;51.504;6.300;2022-09-09T03:29:08;2.42;;;1.73;;
12476;SDS011;6303;51.504;6.300;2022-09-09T03:31:39;2.13;;;1.45;;
12476;SDS011;6303;51.504;6.300;2022-09-09T03:34:08;3.75;;;1.65;;
12476;SDS011;6303;51.504;6.300;2022-09-09T03:36:36;3.10;;;1.50;;
12476;SDS011;6303;51.504;6.300;2022-09-09T03:39:04;1.50;;;1.30;;
12476;SDS011;6303;51.504;6.300;2022-09-09T03:41:31;3.85;;;1.50;;
12476;SDS011;6303;51.504;6.300;2022-09-09T03:44:00;3.20;;;1.50;;
12476;SDS011;6303;51.504;6.300;2022-09-09T03:46:32;2.30;;;1.30;;
12476;SDS011;6303;51.504;6.300;2022-09-09T03:48:59;1.95;;;1.25;;
12476;SDS011;6303;51.504;6.300;2022-09-09T03:51:30;1.70;;;1.42;;
12476;SDS011;6303;51.504;6.300;2022-09-09T03:54:02;4.10;;;1.75;;
12476;SDS011;6303;51.504;6.300;2022-09-09T03:56:31;2.25;;;1.50;;
12476;SDS011;6303;51.504;6.300;2022-09-09T03:58:59;1.42;;;1.33;;
12476;SDS011;6303;51.504;6.300;2022-09-09T04:01:26;2.10;;;1.50;;
12476;SDS011;6303;51.504;6.300;2022-09-09T04:03:54;3.42;;;1.50;;
12476;SDS011;6303;51.504;6.300;2022-09-09T04:06:23;1.70;;;1.15;;
12476;SDS011;6303;51.504;6.300;2022-09-09T04:08:52;2.17;;;1.70;;
12476;SDS011;6303;51.504;6.300;2022-09-09T04:11:20;3.30;;;1.65;;
12476;SDS011;6303;51.504;6.300;2022-09-09T04:13:50;2.25;;;1.10;;
12476;SDS011;6303;51.504;6.300;2022-09-09T04:16:18;1.52;;;1.13;;
12476;SDS011;6303;51.504;6.300;2022-09-09T04:18:45;2.65;;;1.50;;
12476;SDS011;6303;51.504;6.300;2022-09-09T04:21:15;2.38;;;1.08;;
12476;SDS011;6303;51.504;6.300;2022-09-09T04:23:42;2.60;;;1.30;;
12476;SDS011;6303;51.504;6.300;2022-09-09T04:26:11;3.03;;;1.55;;
12476;SDS011;6303;51.504;6.300;2022-09-09T04:28:39;2.15;;;1.05;;
12476;SDS011;6303;51.504;6.300;2022-09-09T04:31:14;2.28;;;1.20;;
12476;SDS011;6303;51.504;6.300;2022-09-09T04:33:44;2.65;;;1.35;;
12476;SDS011;6303;51.504;6.300;2022-09-09T04:36:12;4.82;;;1.40;;
12476;SDS011;6303;51.504;6.300;2022-09-09T04:38:39;4.43;;;1.40;;
12476;SDS011;6303;51.504;6.300;2022-09-09T04:41:06;3.72;;;1.30;;
12476;SDS011;6303;51.504;6.300;2022-09-09T04:43:39;2.75;;;1.40;;
12476;SDS011;6303;51.504;6.300;2022-09-09T04:46:07;3.25;;;1.50;;
12476;SDS011;6303;51.504;6.300;2022-09-09T04:48:34;2.13;;;1.40;;
12476;SDS011;6303;51.504;6.300;2022-09-09T04:51:04;3.47;;;1.38;;
12476;SDS011;6303;51.504;6.300;2022-09-09T04:53:33;3.30;;;1.63;;
12476;SDS011;6303;51.504;6.300;2022-09-09T04:56:03;4.28;;;1.50;;
12476;SDS011;6303;51.504;6.300;2022-09-09T04:58:36;4.60;;;1.40;;
12476;SDS011;6303;51.504;6.300;2022-09-09T05:01:09;3.50;;;1.40;;
12476;SDS011;6303;51.504;6.300;2022-09-09T05:03:38;4.43;;;1.65;;
12476;SDS011;6303;51.504;6.300;2022-09-09T05:06:09;3.33;;;1.30;;
12476;SDS011;6303;51.504;6.300;2022-09-09T05:08:38;2.42;;;1.30;;
12476;SDS011;6303;51.504;6.300;2022-09-09T05:11:13;2.55;;;1.38;;
12476;SDS011;6303;51.504;6.300;2022-09-09T05:13:43;4.05;;;1.73;;
12476;SDS011;6303;51.504;6.300;2022-09-09T05:16:11;5.57;;;1.40;;
12476;SDS011;6303;51.504;6.300;2022-09-09T05:18:39;3.45;;;1.55;;
12476;SDS011;6303;51.504;6.300;2022-09-09T05:21:08;4.10;;;1.63;;
12476;SDS011;6303;51.504;6.300;2022-09-09T05:23:36;3.88;;;1.67;;
12476;SDS011;6303;51.504;6.300;2022-09-09T05:26:03;6.05;;;1.52;;
12476;SDS011;6303;51.504;6.300;2022-09-09T05:28:33;4.07;;;1.60;;
12476;SDS011;6303;51.504;6.300;2022-09-09T05:31:02;11.88;;;2.75;;
12476;SDS011;6303;51.504;6.300;2022-09-09T05:33:33;15.13;;;3.65;;
12476;SDS011;6303;51.504;6.300;2022-09-09T05:36:01;8.18;;;2.53;;
12476;SDS011;6303;51.504;6.300;2022-09-09T05:38:30;10.15;;;2.22;;
12476;SDS011;6303;51.504;6.300;2022-09-09T05:40:59;10.82;;;2.70;;
12476;SDS011;6303;51.504;6.300;2022-09-09T05:43:28;6.93;;;1.92;;
12476;SDS011;6303;51.504;6.300;2022-09-09T05:46:00;4.13;;;1.80;;
12476;SDS011;6303;51.504;6.300;2022-09-09T05:48:31;5.63;;;1.85;;
12476;SDS011;6303;51.504;6.300;2022-09-09T05:51:00;3.88;;;2.08;;
12476;SDS011;6303;51.504;6.300;2022-09-09T05:53:29;6.07;;;1.73;;
12476;SDS011;6303;51.504;6.300;2022-09-09T05:56:00;4.35;;;1.55;;
12476;SDS011;6303;51.504;6.300;2022-09-09T05:58:29;3.80;;;1.67;;
12476;SDS011;6303;51.504;6.300;2022-09-09T06:01:00;4.50;;;1.73;;
12476;SDS011;6303;51.504;6.300;2022-09-09T06:03:31;5.07;;;1.40;;
12476;SDS011;6303;51.504;6.300;2022-09-09T06:05:58;2.83;;;1.50;;
12476;SDS011;6303;51.504;6.300;2022-09-09T06:08:27;4.00;;;1.60;;
12476;SDS011;6303;51.504;6.300;2022-09-09T06:11:00;3.55;;;1.60;;
12476;SDS011;6303;51.504;6.300;2022-09-09T06:13:29;3.80;;;1.60;;
12476;SDS011;6303;51.504;6.300;2022-09-09T06:15:57;2.97;;;1.38;;
12476;SDS011;6303;51.504;6.300;2022-09-09T06:18:27;3.90;;;1.40;;
12476;SDS011;6303;51.504;6.300;2022-09-09T06:20:55;3.75;;;1.50;;
12476;SDS011;6303;51.504;6.300;2022-09-09T06:23:23;3.22;;;1.40;;
12476;SDS011;6303;51.504;6.300;2022-09-09T06:25:51;3.30;;;1.80;;
12476;SDS011;6303;51.504;6.300;2022-09-09T06:28:27;4.25;;;1.50;;
12476;SDS011;6303;51.504;6.300;2022-09-09T06:30:57;4.45;;;1.63;;
12476;SDS011;6303;51.504;6.300;2022-09-09T06:33:24;4.60;;;1.60;;
12476;SDS011;6303;51.504;6.300;2022-09-09T06:35:54;2.40;;;1.33;;
12476;SDS011;6303;51.504;6.300;2022-09-09T06:38:22;4.00;;;1.60;;
12476;SDS011;6303;51.504;6.300;2022-09-09T06:40:51;3.03;;;1.42;;
12476;SDS011;6303;51.504;6.300;2022-09-09T06:43:20;3.45;;;1.48;;
12476;SDS011;6303;51.504;6.300;2022-09-09T06:45:53;3.38;;;1.48;;
12476;SDS011;6303;51.504;6.300;2022-09-09T06:48:21;6.25;;;1.63;;
12476;SDS011;6303;51.504;6.300;2022-09-09T06:50:50;4.18;;;1.58;;
12476;SDS011;6303;51.504;6.300;2022-09-09T06:53:17;3.55;;;1.70;;
12476;SDS011;6303;51.504;6.300;2022-09-09T06:55:45;5.60;;;2.00;;
12476;SDS011;6303;51.504;6.300;2022-09-09T06:58:13;4.03;;;1.60;;
12476;SDS011;6303;51.504;6.300;2022-09-09T07:00:40;3.85;;;1.95;;
12476;SDS011;6303;51.504;6.300;2022-09-09T07:03:07;6.32;;;1.95;;
12476;SDS011;6303;51.504;6.300;2022-09-09T07:05:36;3.28;;;1.60;;
12476;SDS011;6303;51.504;6.300;2022-09-09T07:08:05;3.70;;;1.60;;
12476;SDS011;6303;51.504;6.300;2022-09-09T07:10:32;2.78;;;1.30;;
12476;SDS011;6303;51.504;6.300;2022-09-09T07:13:00;4.15;;;1.38;;
12476;SDS011;6303;51.504;6.300;2022-09-09T07:15:27;4.32;;;1.52;;
12476;SDS011;6303;51.504;6.300;2022-09-09T07:17:55;6.95;;;1.75;;
12476;SDS011;6303;51.504;6.300;2022-09-09T07:20:26;3.85;;;1.83;;
12476;SDS011;6303;51.504;6.300;2022-09-09T07:22:54;4.68;;;1.73;;
12476;SDS011;6303;51.504;6.300;2022-09-09T07:25:25;3.53;;;1.65;;
12476;SDS011;6303;51.504;6.300;2022-09-09T07:27:54;5.05;;;1.80;;
12476;SDS011;6303;51.504;6.300;2022-09-09T07:30:21;4.47;;;2.00;;
12476;SDS011;6303;51.504;6.300;2022-09-09T07:32:50;5.13;;;1.75;;
12476;SDS011;6303;51.504;6.300;2022-09-09T07:35:17;5.65;;;1.95;;
12476;SDS011;6303;51.504;6.300;2022-09-09T07:37:45;3.95;;;1.60;;
12476;SDS011;6303;51.504;6.300;2022-09-09T07:40:12;6.38;;;1.95;;
12476;SDS011;6303;51.504;6.300;2022-09-09T07:42:41;5.78;;;1.85;;
12476;SDS011;6303;51.504;6.300;2022-09-09T07:45:08;3.80;;;1.60;;
12476;SDS011;6303;51.504;6.300;2022-09-09T07:47:36;3.25;;;1.60;;
12476;SDS011;6303;51.504;6.300;2022-09-09T07:50:03;3.63;;;1.83;;
12476;SDS011;6303;51.504;6.300;2022-09-09T07:52:31;4.97;;;2.05;;
12476;SDS011;6303;51.504;6.300;2022-09-09T07:55:02;4.32;;;1.80;;
12476;SDS011;6303;51.504;6.300;2022-09-09T07:57:32;4.03;;;1.60;;
12476;SDS011;6303;51.504;6.300;2022-09-09T08:00:01;4.30;;;1.80;;
12476;SDS011;6303;51.504;6.300;2022-09-09T08:02:37;5.03;;;1.70;;
12476;SDS011;6303;51.504;6.300;2022-09-09T08:05:05;5.38;;;1.55;;
12476;SDS011;6303;51.504;6.300;2022-09-09T08:07:32;2.10;;;1.50;;
12476;SDS011;6303;51.504;6.300;2022-09-09T08:10:00;5.60;;;1.80;;
12476;SDS011;6303;51.504;6.300;2022-09-09T08:12:30;2.78;;;1.40;;
12476;SDS011;6303;51.504;6.300;2022-09-09T08:14:57;5.57;;;2.00;;
12476;SDS011;6303;51.504;6.300;2022-09-09T08:17:30;3.60;;;1.80;;
12476;SDS011;6303;51.504;6.300;2022-09-09T08:20:01;5.25;;;1.50;;
12476;SDS011;6303;51.504;6.300;2022-09-09T08:22:31;5.25;;;1.63;;
12476;SDS011;6303;51.504;6.300;2022-09-09T08:24:58;5.60;;;2.03;;
12476;SDS011;6303;51.504;6.300;2022-09-09T08:27:25;4.35;;;1.67;;
12476;SDS011;6303;51.504;6.300;2022-09-09T08:29:53;5.85;;;1.83;;
12476;SDS011;6303;51.504;6.300;2022-09-09T08:32:22;3.60;;;1.60;;
12476;SDS011;6303;51.504;6.300;2022-09-09T08:34:51;4.40;;;1.73;;
12476;SDS011;6303;51.504;6.300;2022-09-09T08:37:21;5.20;;;1.73;;
12476;SDS011;6303;51.504;6.300;2022-09-09T08:39:48;2.15;;;1.58;;
12476;SDS011;6303;51.504;6.300;2022-09-09T08:42:21;5.30;;;1.50;;
12476;SDS011;6303;51.504;6.300;2022-09-09T08:45:12;5.50;;;1.80;;
12476;SDS011;6303;51.504;6.300;2022-09-09T08:47:50;6.03;;;1.70;;
12476;SDS011;6303;51.504;6.300;2022-09-09T08:50:33;2.80;;;1.52;;
12476;SDS011;6303;51.504;6.300;2022-09-09T08:53:20;4.70;;;1.67;;
12476;SDS011;6303;51.504;6.300;2022-09-09T08:55:52;5.50;;;1.80;;
12476;SDS011;6303;51.504;6.300;2022-09-09T08:58:31;4.72;;;1.42;;
12476;SDS011;6303;51.504;6.300;2022-09-09T09:01:09;4.10;;;1.90;;
12476;SDS011;6303;51.504;6.300;2022-09-09T09:03:57;3.25;;;1.30;;
12476;SDS011;6303;51.504;6.300;2022-09-09T09:06:34;5.60;;;1.70;;
12476;SDS011;6303;51.504;6.300;2022-09-09T09:09:11;3.75;;;1.60;;
12476;SDS011;6303;51.504;6.300;2022-09-09T09:11:45;3.53;;;1.50;;
12476;SDS011;6303;51.504;6.300;2022-09-09T09:14:17;4.85;;;1.90;;
12476;SDS011;6303;51.504;6.300;2022-09-09T09:16:49;4.05;;;1.60;;
12476;SDS011;6303;51.504;6.300;2022-09-09T09:19:21;5.70;;;1.63;;
12476;SDS011;6303;51.504;6.300;2022-09-09T09:21:56;3.97;;;1.75;;
12476;SDS011;6303;51.504;6.300;2022-09-09T09:24:34;3.35;;;1.83;;
12476;SDS011;6303;51.504;6.300;2022-09-09T09:27:12;3.83;;;1.88;;
12476;SDS011;6303;51.504;6.300;2022-09-09T09:29:44;3.28;;;1.55;;
12476;SDS011;6303;51.504;6.300;2022-09-09T09:32:16;4.28;;;1.90;;
12476;SDS011;6303;51.504;6.300;2022-09-09T09:34:48;2.92;;;1.70;;
12476;SDS011;6303;51.504;6.300;2022-09-09T09:37:20;3.15;;;1.85;;
12476;SDS011;6303;51.504;6.300;2022-09-09T09:39:53;5.68;;;1.83;;
12476;SDS011;6303;51.504;6.300;2022-09-09T09:42:21;4.32;;;1.50;;
12476;SDS011;6303;51.504;6.300;2022-09-09T09:44:49;3.85;;;1.60;;
12476;SDS011;6303;51.504;6.300;2022-09-09T09:47:20;4.45;;;1.80;;
12476;SDS011;6303;51.504;6.300;2022-09-09T09:50:02;3.92;;;1.83;;
12476;SDS011;6303;51.504;6.300;2022-09-09T09:52:37;3.13;;;1.60;;
12476;SDS011;6303;51.504;6.300;2022-09-09T09:55:11;3.47;;;1.55;;
12476;SDS011;6303;51.504;6.300;2022-09-09T09:57:42;3.05;;;1.77;;
12476;SDS011;6303;51.504;6.300;2022-09-09T10:00:12;4.70;;;1.63;;
12476;SDS011;6303;51.504;6.300;2022-09-09T10:02:45;4.60;;;1.65;;
12476;SDS011;6303;51.504;6.300;2022-09-09T10:05:20;2.88;;;1.40;;
12476;SDS011;6303;51.504;6.300;2022-09-09T10:08:01;4.10;;;1.33;;
12476;SDS011;6303;51.504;6.300;2022-09-09T10:10:34;3.15;;;1.42;;
12476;SDS011;6303;51.504;6.300;2022-09-09T10:13:11;4.75;;;1.70;;
12476;SDS011;6303;51.504;6.300;2022-09-09T10:15:45;4.95;;;1.42;;
12476;SDS011;6303;51.504;6.300;2022-09-09T10:18:30;3.65;;;1.50;;
12476;SDS011;6303;51.504;6.300;2022-09-09T10:21:10;2.38;;;1.40;;
12476;SDS011;6303;51.504;6.300;2022-09-09T10:23:53;3.30;;;1.77;;
12476;SDS011;6303;51.504;6.300;2022-09-09T10:26:40;2.72;;;1.70;;
12476;SDS011;6303;51.504;6.300;2022-09-09T10:29:26;4.28;;;1.60;;
12476;SDS011;6303;51.504;6.300;2022-09-09T10:32:23;5.43;;;1.60;;
12476;SDS011;6303;51.504;6.300;2022-09-09T10:35:01;3.33;;;1.60;;
12476;SDS011;6303;51.504;6.300;2022-09-09T10:37:39;4.53;;;1.52;;
12476;SDS011;6303;51.504;6.300;2022-09-09T10:40:19;4.28;;;1.88;;
12476;SDS011;6303;51.504;6.300;2022-09-09T10:42:52;4.20;;;1.83;;
12476;SDS011;6303;51.504;6.300;2022-09-09T10:45:26;3.70;;;1.60;;
12476;SDS011;6303;51.504;6.300;2022-09-09T10:48:09;4.07;;;2.03;;
12476;SDS011;6303;51.504;6.300;2022-09-09T10:50:49;4.50;;;1.80;;
12476;SDS011;6303;51.504;6.300;2022-09-09T10:53:24;5.13;;;1.67;;
12476;SDS011;6303;51.504;6.300;2022-09-09T10:56:03;3.75;;;1.77;;
12476;SDS011;6303;51.504;6.300;2022-09-09T10:58:35;3.72;;;1.63;;
12476;SDS011;6303;51.504;6.300;2022-09-09T11:01:09;4.85;;;1.50;;
12476;SDS011;6303;51.504;6.300;2022-09-09T11:03:43;2.63;;;1.52;;
12476;SDS011;6303;51.504;6.300;2022-09-09T11:06:16;3.38;;;1.40;;
12476;SDS011;6303;51.504;6.300;2022-09-09T11:08:46;3.42;;;1.70;;
12476;SDS011;6303;51.504;6.300;2022-09-09T11:11:17;3.03;;;1.55;;
12476;SDS011;6303;51.504;6.300;2022-09-09T11:13:53;3.20;;;1.50;;
12476;SDS011;6303;51.504;6.300;2022-09-09T11:16:26;4.20;;;1.77;;
12476;SDS011;6303;51.504;6.300;2022-09-09T11:18:58;3.58;;;1.80;;
12476;SDS011;6303;51.504;6.300;2022-09-09T11:21:31;3.90;;;1.52;;
12476;SDS011;6303;51.504;6.300;2022-09-09T11:24:03;3.38;;;1.50;;
12476;SDS011;6303;51.504;6.300;2022-09-09T11:26:37;3.50;;;1.50;;
12476;SDS011;6303;51.504;6.300;2022-09-09T11:29:18;3.38;;;1.50;;
12476;SDS011;6303;51.504;6.300;2022-09-09T11:32:01;1.77;;;1.20;;
12476;SDS011;6303;51.504;6.300;2022-09-09T11:34:43;2.67;;;1.38;;
12476;SDS011;6303;51.504;6.300;2022-09-09T11:37:38;3.90;;;1.60;;
12476;SDS011;6303;51.504;6.300;2022-09-09T11:40:15;2.80;;;1.33;;
12476;SDS011;6303;51.504;6.300;2022-09-09T11:42:47;3.03;;;1.40;;
12476;SDS011;6303;51.504;6.300;2022-09-09T11:45:20;2.63;;;1.40;;
12476;SDS011;6303;51.504;6.300;2022-09-09T11:47:51;2.90;;;1.50;;
12476;SDS011;6303;51.504;6.300;2022-09-09T11:50:30;4.65;;;2.00;;
12476;SDS011;6303;51.504;6.300;2022-09-09T11:53:05;3.15;;;1.65;;
12476;SDS011;6303;51.504;6.300;2022-09-09T11:55:47;4.00;;;1.70;;
12476;SDS011;6303;51.504;6.300;2022-09-09T11:58:27;3.83;;;1.80;;
12476;SDS011;6303;51.504;6.300;2022-09-09T12:01:00;2.88;;;1.50;;
12476;SDS011;6303;51.504;6.300;2022-09-09T12:03:40;3.38;;;1.52;;
12476;SDS011;6303;51.504;6.300;2022-09-09T12:06:11;3.65;;;1.63;;
12476;SDS011;6303;51.504;6.300;2022-09-09T12:08:42;3.28;;;1.60;;
12476;SDS011;6303;51.504;6.300;2022-09-09T12:11:22;2.05;;;1.35;;
12476;SDS011;6303;51.504;6.300;2022-09-09T12:13:56;2.67;;;1.67;;
12476;SDS011;6303;51.504;6.300;2022-09-09T12:16:29;4.28;;;1.75;;
12476;SDS011;6303;51.504;6.300;2022-09-09T12:19:06;2.58;;;1.60;;
12476;SDS011;6303;51.504;6.300;2022-09-09T12:21:42;4.00;;;1.50;;
12476;SDS011;6303;51.504;6.300;2022-09-09T12:24:18;3.17;;;1.55;;
12476;SDS011;6303;51.504;6.300;2022-09-09T12:26:54;3.60;;;1.50;;
12476;SDS011;6303;51.504;6.300;2022-09-09T12:29:36;2.97;;;1.45;;
12476;SDS011;6303;51.504;6.300;2022-09-09T12:32:11;3.47;;;1.58;;
12476;SDS011;6303;51.504;6.300;2022-09-09T12:34:46;3.05;;;1.60;;
12476;SDS011;6303;51.504;6.300;2022-09-09T12:37:21;2.75;;;1.45;;
12476;SDS011;6303;51.504;6.300;2022-09-09T12:39:55;2.67;;;1.40;;
12476;SDS011;6303;51.504;6.300;2022-09-09T12:42:23;2.90;;;1.50;;
12476;SDS011;6303;51.504;6.300;2022-09-09T12:44:56;2.80;;;1.70;;
12476;SDS011;6303;51.504;6.300;2022-09-09T12:47:26;3.15;;;1.75;;
12476;SDS011;6303;51.504;6.300;2022-09-09T12:50:02;4.00;;;1.77;;
12476;SDS011;6303;51.504;6.300;2022-09-09T12:52:30;2.38;;;1.67;;
12476;SDS011;6303;51.504;6.300;2022-09-09T12:55:03;3.42;;;1.55;;
12476;SDS011;6303;51.504;6.300;2022-09-09T12:57:34;1.95;;;1.60;;
12476;SDS011;6303;51.504;6.300;2022-09-09T13:00:06;2.85;;;1.30;;
12476;SDS011;6303;51.504;6.300;2022-09-09T13:02:45;2.85;;;1.58;;
12476;SDS011;6303;51.504;6.300;2022-09-09T13:05:14;2.85;;;1.60;;
12476;SDS011;6303;51.504;6.300;2022-09-09T13:07:44;2.75;;;1.48;;
12476;SDS011;6303;51.504;6.300;2022-09-09T13:10:12;3.33;;;1.50;;
12476;SDS011;6303;51.504;6.300;2022-09-09T13:12:41;3.25;;;1.75;;
12476;SDS011;6303;51.504;6.300;2022-09-09T13:15:16;4.40;;;1.60;;
12476;SDS011;6303;51.504;6.300;2022-09-09T13:17:54;5.30;;;1.80;;
12476;SDS011;6303;51.504;6.300;2022-09-09T13:20:23;2.33;;;1.40;;
12476;SDS011;6303;51.504;6.300;2022-09-09T13:22:51;3.80;;;1.52;;
12476;SDS011;6303;51.504;6.300;2022-09-09T13:25:21;3.90;;;1.90;;
12476;SDS011;6303;51.504;6.300;2022-09-09T13:27:52;4.57;;;1.67;;
12476;SDS011;6303;51.504;6.300;2022-09-09T13:30:24;3.85;;;1.75;;
12476;SDS011;6303;51.504;6.300;2022-09-09T13:33:04;3.15;;;1.58;;
12476;SDS011;6303;51.504;6.300;2022-09-09T13:35:49;3.50;;;1.70;;
12476;SDS011;6303;51.504;6.300;2022-09-09T13:38:18;4.70;;;1.65;;
12476;SDS011;6303;51.504;6.300;2022-09-09T13:40:56;4.82;;;1.70;;
12476;SDS011;6303;51.504;6.300;2022-09-09T13:43:27;3.80;;;1.80;;
12476;SDS011;6303;51.504;6.300;2022-09-09T13:45:57;2.85;;;1.30;;
12476;SDS011;6303;51.504;6.300;2022-09-09T13:48:26;2.72;;;1.50;;
12476;SDS011;6303;51.504;6.300;2022-09-09T13:50:56;3.65;;;1.40;;
12476;SDS011;6303;51.504;6.300;2022-09-09T13:53:24;4.53;;;1.55;;
12476;SDS011;6303;51.504;6.300;2022-09-09T13:55:51;2.45;;;1.38;;
12476;SDS011;6303;51.504;6.300;2022-09-09T13:58:19;3.63;;;1.67;;
12476;SDS011;6303;51.504;6.300;2022-09-09T14:00:48;3.47;;;1.60;;
12476;SDS011;6303;51.504;6.300;2022-09-09T14:03:16;3.00;;;1.65;;
12476;SDS011;6303;51.504;6.300;2022-09-09T14:05:43;2.55;;;1.35;;
12476;SDS011;6303;51.504;6.300;2022-09-09T14:08:15;2.25;;;1.50;;
12476;SDS011;6303;51.504;6.300;2022-09-09T14:10:47;2.85;;;1.50;;
12476;SDS011;6303;51.504;6.300;2022-09-09T14:13:14;4.13;;;1.33;;
12476;SDS011;6303;51.504;6.300;2022-09-09T14:15:41;1.75;;;1.20;;
12476;SDS011;6303;51.504;6.300;2022-09-09T14:18:09;4.20;;;1.40;;
12476;SDS011;6303;51.504;6.300;2022-09-09T14:20:40;2.10;;;1.30;;
12476;SDS011;6303;51.504;6.300;2022-09-09T14:23:10;1.92;;;1.40;;
12476;SDS011;6303;51.504;6.300;2022-09-09T14:25:41;1.75;;;1.20;;
12476;SDS011;6303;51.504;6.300;2022-09-09T14:28:09;2.08;;;1.30;;
12476;SDS011;6303;51.504;6.300;2022-09-09T14:30:37;2.42;;;1.40;;
12476;SDS011;6303;51.504;6.300;2022-09-09T14:33:05;1.70;;;1.42;;
12476;SDS011;6303;51.504;6.300;2022-09-09T14:35:32;6.82;;;2.20;;
12476;SDS011;6303;51.504;6.300;2022-09-09T14:38:00;1.95;;;1.40;;
12476;SDS011;6303;51.504;6.300;2022-09-09T14:40:28;2.45;;;1.40;;
12476;SDS011;6303;51.504;6.300;2022-09-09T14:42:55;2.20;;;1.25;;
12476;SDS011;6303;51.504;6.300;2022-09-09T14:45:23;1.95;;;1.30;;
12476;SDS011;6303;51.504;6.300;2022-09-09T14:47:52;3.80;;;1.55;;
12476;SDS011;6303;51.504;6.300;2022-09-09T14:50:19;3.85;;;1.50;;
12476;SDS011;6303;51.504;6.300;2022-09-09T14:52:47;2.72;;;1.60;;
12476;SDS011;6303;51.504;6.300;2022-09-09T14:55:16;2.80;;;1.30;;
12476;SDS011;6303;51.504;6.300;2022-09-09T14:57:44;5.40;;;1.63;;
12476;SDS011;6303;51.504;6.300;2022-09-09T15:00:11;3.60;;;1.50;;
12476;SDS011;6303;51.504;6.300;2022-09-09T15:02:40;5.15;;;1.73;;
12476;SDS011;6303;51.504;6.300;2022-09-09T15:05:07;5.97;;;1.60;;
12476;SDS011;6303;51.504;6.300;2022-09-09T15:07:35;6.05;;;1.85;;
12476;SDS011;6303;51.504;6.300;2022-09-09T15:10:03;2.00;;;1.30;;
12476;SDS011;6303;51.504;6.300;2022-09-09T15:12:33;3.13;;;1.50;;
12476;SDS011;6303;51.504;6.300;2022-09-09T15:15:00;3.75;;;1.60;;
12476;SDS011;6303;51.504;6.300;2022-09-09T15:17:31;2.70;;;1.50;;
12476;SDS011;6303;51.504;6.300;2022-09-09T15:19:58;3.05;;;1.17;;
12476;SDS011;6303;51.504;6.300;2022-09-09T15:22:25;3.20;;;1.50;;
12476;SDS011;6303;51.504;6.300;2022-09-09T15:24:52;2.22;;;1.20;;
12476;SDS011;6303;51.504;6.300;2022-09-09T15:27:19;3.38;;;1.75;;
12476;SDS011;6303;51.504;6.300;2022-09-09T15:29:50;3.08;;;1.45;;
12476;SDS011;6303;51.504;6.300;2022-09-09T15:32:17;2.50;;;1.50;;